sensor_id;sensor_type;location;lat;lon;timestamp;pressure;altitude;pressure_sealevel;temperature;humidity
71465;BME280;59274;49.874;9.154;2023-08-08T00:01:38;100355.97;;;13.15;100.00
71465;BME280;59274;49.874;9.154;2023-08-08T00:04:08;100355.59;;;13.13;100.00
71465;BME280;59274;49.874;9.154;2023-08-08T00:06:33;100354.81;;;13.16;100.00
71465;BME280;59274;49.874;9.154;2023-08-08T00:08:58;100367.69;;;13.22;100.00
71465;BME280;59274;49.874;9.154;2023-08-08T00:11:24;100360.69;;;13.32;100.00
71465;BME280;59274;49.874;9.154;2023-08-08T00:13:49;100361.84;;;13.31;100.00
71465;BME280;59274;49.874;9.154;2023-08-08T00:16:15;100361.47;;;13.29;100.00
71465;BME280;59274;49.874;9.154;2023-08-08T00:18:40;100363.00;;;13.23;100.00
71465;BME280;59274;49.874;9.154;2023-08-08T00:21:06;100362.25;;;13.29;100.00
71465;BME280;59274;49.874;9.154;2023-08-08T00:23:31;100352.13;;;13.33;100.00
71465;BME280;59274;49.874;9.154;2023-08-08T00:25:56;100363.84;;;13.41;100.00
71465;BME280;59274;49.874;9.154;2023-08-08T00:28:22;100354.50;;;13.42;100.00
71465;BME280;59274;49.874;9.154;2023-08-08T00:30:47;100360.72;;;13.36;100.00
71465;BME280;59274;49.874;9.154;2023-08-08T00:33:13;100347.81;;;13.36;100.00
71465;BME280;59274;49.874;9.154;2023-08-08T00:35:38;100354.09;;;13.40;100.00
71465;BME280;59274;49.874;9.154;2023-08-08T00:38:04;100349.41;;;13.44;100.00
71465;BME280;59274;49.874;9.154;2023-08-08T00:40:29;100348.25;;;13.42;100.00
71465;BME280;59274;49.874;9.154;2023-08-08T00:42:54;100341.22;;;13.37;100.00
71465;BME280;59274;49.874;9.154;2023-08-08T00:45:20;100338.09;;;13.39;100.00
71465;BME280;59274;49.874;9.154;2023-08-08T00:47:45;100335.38;;;13.39;100.00
71465;BME280;59274;49.874;9.154;2023-08-08T00:50:11;100341.63;;;13.39;100.00
71465;BME280;59274;49.874;9.154;2023-08-08T00:52:38;100330.69;;;13.39;100.00
71465;BME280;59274;49.874;9.154;2023-08-08T00:55:05;100345.13;;;13.40;100.00
71465;BME280;59274;49.874;9.154;2023-08-08T00:57:30;100346.66;;;13.37;100.00
71465;BME280;59274;49.874;9.154;2023-08-08T00:59:56;100347.47;;;13.41;100.00
71465;BME280;59274;49.874;9.154;2023-08-08T01:02:21;100346.66;;;13.44;100.00
71465;BME280;59274;49.874;9.154;2023-08-08T01:04:47;100341.22;;;13.41;100.00
71465;BME280;59274;49.874;9.154;2023-08-08T01:07:30;100345.09;;;13.43;100.00
71465;BME280;59274;49.874;9.154;2023-08-08T01:09:59;100349.41;;;13.37;100.00
71465;BME280;59274;49.874;9.154;2023-08-08T01:12:30;100350.56;;;13.40;100.00
71465;BME280;59274;49.874;9.154;2023-08-08T01:14:56;100340.06;;;13.45;100.00
71465;BME280;59274;49.874;9.154;2023-08-08T01:17:22;100344.75;;;13.41;100.00
71465;BME280;59274;49.874;9.154;2023-08-08T01:19:50;100347.47;;;13.52;100.00
71465;BME280;59274;49.874;9.154;2023-08-08T01:22:23;100342.00;;;13.48;100.00
71465;BME280;59274;49.874;9.154;2023-08-08T01:24:50;100340.06;;;13.42;100.00
71465;BME280;59274;49.874;9.154;2023-08-08T01:27:17;100338.13;;;13.42;100.00
71465;BME280;59274;49.874;9.154;2023-08-08T01:29:42;100332.25;;;13.44;100.00
71465;BME280;59274;49.874;9.154;2023-08-08T01:32:08;100326.81;;;13.47;100.00
71465;BME280;59274;49.874;9.154;2023-08-08T01:34:36;100324.47;;;13.49;100.00
71465;BME280;59274;49.874;9.154;2023-08-08T01:37:11;100334.19;;;13.50;100.00
71465;BME280;59274;49.874;9.154;2023-08-08T01:39:42;100324.47;;;13.49;100.00
71465;BME280;59274;49.874;9.154;2023-08-08T01:42:10;100320.56;;;13.47;100.00
71465;BME280;59274;49.874;9.154;2023-08-08T01:44:37;100322.13;;;13.44;100.00
71465;BME280;59274;49.874;9.154;2023-08-08T01:47:05;100322.13;;;13.48;100.00
71465;BME280;59274;49.874;9.154;2023-08-08T01:49:30;100320.94;;;13.45;100.00
71465;BME280;59274;49.874;9.154;2023-08-08T01:51:56;100313.56;;;13.42;100.00
71465;BME280;59274;49.874;9.154;2023-08-08T01:54:21;100316.69;;;13.55;100.00
71465;BME280;59274;49.874;9.154;2023-08-08T01:56:47;100319.78;;;13.53;100.00
71465;BME280;59274;49.874;9.154;2023-08-08T01:59:12;100322.13;;;13.51;100.00
71465;BME280;59274;49.874;9.154;2023-08-08T02:01:38;100310.44;;;13.58;100.00
71465;BME280;59274;49.874;9.154;2023-08-08T02:04:03;100311.22;;;13.55;100.00
71465;BME280;59274;49.874;9.154;2023-08-08T02:06:29;100305.38;;;13.56;100.00
71465;BME280;59274;49.874;9.154;2023-08-08T02:08:54;100313.56;;;13.49;100.00
71465;BME280;59274;49.874;9.154;2023-08-08T02:11:20;100312.78;;;13.49;100.00
71465;BME280;59274;49.874;9.154;2023-08-08T02:13:47;100315.50;;;13.56;100.00
71465;BME280;59274;49.874;9.154;2023-08-08T02:16:12;100307.31;;;13.45;100.00
71465;BME280;59274;49.874;9.154;2023-08-08T02:18:37;100304.19;;;13.54;100.00
71465;BME280;59274;49.874;9.154;2023-08-08T02:21:06;100302.63;;;13.53;100.00
71465;BME280;59274;49.874;9.154;2023-08-08T02:23:32;100302.66;;;13.49;100.00
71465;BME280;59274;49.874;9.154;2023-08-08T02:25:58;100307.31;;;13.45;100.00
71465;BME280;59274;49.874;9.154;2023-08-08T02:28:23;100306.53;;;13.38;100.00
71465;BME280;59274;49.874;9.154;2023-08-08T02:30:49;100297.97;;;13.32;100.00
71465;BME280;59274;49.874;9.154;2023-08-08T02:33:14;100308.09;;;13.35;100.00
71465;BME280;59274;49.874;9.154;2023-08-08T02:35:40;100306.91;;;13.36;100.00
71465;BME280;59274;49.874;9.154;2023-08-08T02:38:05;100309.28;;;13.48;100.00
71465;BME280;59274;49.874;9.154;2023-08-08T02:40:31;100305.38;;;13.49;100.00
71465;BME280;59274;49.874;9.154;2023-08-08T02:42:57;100304.59;;;13.52;100.00
71465;BME280;59274;49.874;9.154;2023-08-08T02:45:30;100300.31;;;13.48;100.00
71465;BME280;59274;49.874;9.154;2023-08-08T02:47:59;100303.03;;;13.55;100.00
71465;BME280;59274;49.874;9.154;2023-08-08T02:50:24;100301.44;;;13.64;100.00
71465;BME280;59274;49.874;9.154;2023-08-08T02:52:50;100301.84;;;13.66;100.00
71465;BME280;59274;49.874;9.154;2023-08-08T02:55:15;100294.06;;;13.68;100.00
71465;BME280;59274;49.874;9.154;2023-08-08T02:57:41;100304.19;;;13.68;100.00
71465;BME280;59274;49.874;9.154;2023-08-08T03:00:07;100301.84;;;13.59;100.00
71465;BME280;59274;49.874;9.154;2023-08-08T03:02:33;100304.19;;;13.57;100.00
71465;BME280;59274;49.874;9.154;2023-08-08T03:04:59;100304.59;;;13.52;100.00
71465;BME280;59274;49.874;9.154;2023-08-08T03:07:28;100305.38;;;13.42;100.00
71465;BME280;59274;49.874;9.154;2023-08-08T03:09:53;100297.19;;;13.31;100.00
71465;BME280;59274;49.874;9.154;2023-08-08T03:12:19;100304.59;;;13.27;100.00
71465;BME280;59274;49.874;9.154;2023-08-08T03:14:44;100295.25;;;13.21;100.00
71465;BME280;59274;49.874;9.154;2023-08-08T03:17:10;100297.91;;;13.11;100.00
71465;BME280;59274;49.874;9.154;2023-08-08T03:19:35;100308.81;;;13.00;100.00
71465;BME280;59274;49.874;9.154;2023-08-08T03:22:00;100310.34;;;12.98;100.00
71465;BME280;59274;49.874;9.154;2023-08-08T03:24:26;100309.56;;;12.90;100.00
71465;BME280;59274;49.874;9.154;2023-08-08T03:26:51;100308.00;;;12.85;100.00
71465;BME280;59274;49.874;9.154;2023-08-08T03:29:17;100306.00;;;12.79;100.00
71465;BME280;59274;49.874;9.154;2023-08-08T03:31:42;100311.06;;;12.77;100.00
71465;BME280;59274;49.874;9.154;2023-08-08T03:34:07;100305.94;;;12.65;100.00
71465;BME280;59274;49.874;9.154;2023-08-08T03:36:33;100314.91;;;12.62;100.00
71465;BME280;59274;49.874;9.154;2023-08-08T03:38:58;100304.78;;;12.59;100.00
71465;BME280;59274;49.874;9.154;2023-08-08T03:41:24;100306.31;;;12.49;100.00
71465;BME280;59274;49.874;9.154;2023-08-08T03:43:49;100306.69;;;12.47;100.00
71465;BME280;59274;49.874;9.154;2023-08-08T03:46:15;100309.38;;;12.44;100.00
71465;BME280;59274;49.874;9.154;2023-08-08T03:48:40;100303.16;;;12.43;100.00
71465;BME280;59274;49.874;9.154;2023-08-08T03:51:05;100310.53;;;12.39;100.00
71465;BME280;59274;49.874;9.154;2023-08-08T03:53:32;100309.75;;;12.39;100.00
71465;BME280;59274;49.874;9.154;2023-08-08T03:55:58;100322.16;;;12.29;100.00
71465;BME280;59274;49.874;9.154;2023-08-08T03:58:23;100314.00;;;12.33;100.00
71465;BME280;59274;49.874;9.154;2023-08-08T04:00:49;100308.22;;;12.41;100.00
71465;BME280;59274;49.874;9.154;2023-08-08T04:03:15;100317.13;;;12.35;100.00
71465;BME280;59274;49.874;9.154;2023-08-08T04:05:46;100324.16;;;12.36;100.00
71465;BME280;59274;49.874;9.154;2023-08-08T04:08:12;100327.63;;;12.36;100.00
71465;BME280;59274;49.874;9.154;2023-08-08T04:10:38;100323.75;;;12.34;100.00
71465;BME280;59274;49.874;9.154;2023-08-08T04:13:03;100325.66;;;12.30;100.00
71465;BME280;59274;49.874;9.154;2023-08-08T04:15:29;100324.50;;;12.31;100.00
71465;BME280;59274;49.874;9.154;2023-08-08T04:17:54;100324.50;;;12.27;100.00
71465;BME280;59274;49.874;9.154;2023-08-08T04:20:20;100328.41;;;12.33;100.00
71465;BME280;59274;49.874;9.154;2023-08-08T04:22:45;100325.66;;;12.30;100.00
71465;BME280;59274;49.874;9.154;2023-08-08T04:25:11;100324.47;;;12.24;100.00
71465;BME280;59274;49.874;9.154;2023-08-08T04:27:36;100321.72;;;12.24;100.00
71465;BME280;59274;49.874;9.154;2023-08-08T04:30:02;100323.28;;;12.21;100.00
71465;BME280;59274;49.874;9.154;2023-08-08T04:32:28;100329.50;;;12.18;100.00
71465;BME280;59274;49.874;9.154;2023-08-08T04:34:54;100323.28;;;12.25;100.00
71465;BME280;59274;49.874;9.154;2023-08-08T04:37:19;100317.81;;;12.18;100.00
71465;BME280;59274;49.874;9.154;2023-08-08T04:39:44;100316.66;;;12.19;100.00
71465;BME280;59274;49.874;9.154;2023-08-08T04:42:10;100314.34;;;12.21;100.00
71465;BME280;59274;49.874;9.154;2023-08-08T04:44:35;100317.09;;;12.28;100.00
71465;BME280;59274;49.874;9.154;2023-08-08T04:47:01;100311.22;;;12.19;100.00
71465;BME280;59274;49.874;9.154;2023-08-08T04:49:26;100305.06;;;12.29;100.00
71465;BME280;59274;49.874;9.154;2023-08-08T04:51:51;100306.97;;;12.21;100.00
71465;BME280;59274;49.874;9.154;2023-08-08T04:54:17;100315.94;;;12.29;100.00
71465;BME280;59274;49.874;9.154;2023-08-08T04:56:42;100314.69;;;12.15;100.00
71465;BME280;59274;49.874;9.154;2023-08-08T04:59:08;100319.38;;;12.19;100.00
71465;BME280;59274;49.874;9.154;2023-08-08T05:01:33;100322.09;;;12.19;100.00
71465;BME280;59274;49.874;9.154;2023-08-08T05:03:59;100317.81;;;12.18;100.00
71465;BME280;59274;49.874;9.154;2023-08-08T05:06:24;100318.66;;;12.29;100.00
71465;BME280;59274;49.874;9.154;2023-08-08T05:08:51;100304.31;;;12.39;100.00
71465;BME280;59274;49.874;9.154;2023-08-08T05:11:17;100310.94;;;12.45;100.00
71465;BME280;59274;49.874;9.154;2023-08-08T05:13:42;100309.44;;;12.58;100.00
71465;BME280;59274;49.874;9.154;2023-08-08T05:16:08;100317.22;;;12.60;100.00
71465;BME280;59274;49.874;9.154;2023-08-08T05:18:34;100312.97;;;12.66;100.00
71465;BME280;59274;49.874;9.154;2023-08-08T05:20:59;100313.78;;;12.73;100.00
71465;BME280;59274;49.874;9.154;2023-08-08T05:23:25;100310.69;;;12.82;100.00
71465;BME280;59274;49.874;9.154;2023-08-08T05:25:50;100308.00;;;12.85;100.00
71465;BME280;59274;49.874;9.154;2023-08-08T05:28:15;100301.72;;;12.81;100.00
71465;BME280;59274;49.874;9.154;2023-08-08T05:30:41;100300.97;;;12.84;100.00
71465;BME280;59274;49.874;9.154;2023-08-08T05:33:06;100307.59;;;12.94;100.00
71465;BME280;59274;49.874;9.154;2023-08-08T05:35:32;100294.75;;;12.94;100.00
71465;BME280;59274;49.874;9.154;2023-08-08T05:37:57;100289.34;;;13.05;100.00
71465;BME280;59274;49.874;9.154;2023-08-08T05:40:22;100288.59;;;13.15;100.00
71465;BME280;59274;49.874;9.154;2023-08-08T05:42:48;100294.06;;;13.19;100.00
71465;BME280;59274;49.874;9.154;2023-08-08T05:45:13;100297.56;;;13.23;100.00
71465;BME280;59274;49.874;9.154;2023-08-08T05:47:39;100285.88;;;13.26;100.00
71465;BME280;59274;49.874;9.154;2023-08-08T05:50:05;100290.16;;;13.27;100.00
71465;BME280;59274;49.874;9.154;2023-08-08T05:52:31;100291.75;;;13.35;100.00
71465;BME280;59274;49.874;9.154;2023-08-08T05:54:56;100289.78;;;13.43;100.00
71465;BME280;59274;49.874;9.154;2023-08-08T05:57:24;100290.19;;;13.48;100.00
71465;BME280;59274;49.874;9.154;2023-08-08T05:59:50;100293.66;;;13.59;100.00
71465;BME280;59274;49.874;9.154;2023-08-08T06:02:15;100292.50;;;13.60;100.00
71465;BME280;59274;49.874;9.154;2023-08-08T06:04:41;100300.28;;;13.72;100.00
71465;BME280;59274;49.874;9.154;2023-08-08T06:07:06;100296.38;;;13.84;100.00
71465;BME280;59274;49.874;9.154;2023-08-08T06:09:31;100305.69;;;14.04;100.00
71465;BME280;59274;49.874;9.154;2023-08-08T06:11:58;100302.94;;;14.15;100.00
71465;BME280;59274;49.874;9.154;2023-08-08T06:14:23;100304.09;;;14.25;100.00
71465;BME280;59274;49.874;9.154;2023-08-08T06:16:49;100294.69;;;14.33;100.00
71465;BME280;59274;49.874;9.154;2023-08-08T06:19:15;100299.78;;;14.41;100.00
71465;BME280;59274;49.874;9.154;2023-08-08T06:21:41;100300.88;;;14.51;100.00
71465;BME280;59274;49.874;9.154;2023-08-08T06:24:06;100309.06;;;14.58;100.00
71465;BME280;59274;49.874;9.154;2023-08-08T06:26:32;100305.91;;;14.67;100.00
71465;BME280;59274;49.874;9.154;2023-08-08T06:28:57;100314.47;;;14.72;100.00
71465;BME280;59274;49.874;9.154;2023-08-08T06:31:23;100311.72;;;14.76;100.00
71465;BME280;59274;49.874;9.154;2023-08-08T06:33:48;100313.22;;;14.87;100.00
71465;BME280;59274;49.874;9.154;2023-08-08T06:36:14;100309.31;;;14.88;100.00
71465;BME280;59274;49.874;9.154;2023-08-08T06:38:39;100307.66;;;15.02;100.00
71465;BME280;59274;49.874;9.154;2023-08-08T06:41:05;100312.25;;;15.15;100.00
71465;BME280;59274;49.874;9.154;2023-08-08T06:43:31;100306.00;;;15.18;100.00
71465;BME280;59274;49.874;9.154;2023-08-08T06:45:56;100310.25;;;15.23;100.00
71465;BME280;59274;49.874;9.154;2023-08-08T06:48:22;100314.09;;;15.33;100.00
71465;BME280;59274;49.874;9.154;2023-08-08T06:50:48;100308.59;;;15.40;100.00
71465;BME280;59274;49.874;9.154;2023-08-08T06:53:17;100303.47;;;15.42;100.00
71465;BME280;59274;49.874;9.154;2023-08-08T06:55:43;100315.13;;;15.49;100.00
71465;BME280;59274;49.874;9.154;2023-08-08T06:58:09;100296.38;;;15.55;100.00
71465;BME280;59274;49.874;9.154;2023-08-08T07:00:34;100299.47;;;15.57;100.00
71465;BME280;59274;49.874;9.154;2023-08-08T07:03:00;100304.88;;;15.64;100.00
71465;BME280;59274;49.874;9.154;2023-08-08T07:05:26;100308.00;;;15.66;100.00
71465;BME280;59274;49.874;9.154;2023-08-08T07:07:51;100302.50;;;15.70;100.00
71465;BME280;59274;49.874;9.154;2023-08-08T07:10:18;100307.13;;;15.76;100.00
71465;BME280;59274;49.874;9.154;2023-08-08T07:12:43;100292.91;;;15.88;100.00
71465;BME280;59274;49.874;9.154;2023-08-08T07:15:09;100301.91;;;15.89;100.00
71465;BME280;59274;49.874;9.154;2023-08-08T07:17:34;100299.13;;;15.92;100.00
71465;BME280;59274;49.874;9.154;2023-08-08T07:20:00;100301.84;;;15.96;100.00
71465;BME280;59274;49.874;9.154;2023-08-08T07:22:25;100302.56;;;16.00;100.00
71465;BME280;59274;49.874;9.154;2023-08-08T07:24:51;100303.34;;;16.04;100.00
71465;BME280;59274;49.874;9.154;2023-08-08T07:27:16;100300.53;;;16.11;100.00
71465;BME280;59274;49.874;9.154;2023-08-08T07:29:42;100300.78;;;16.24;100.00
71465;BME280;59274;49.874;9.154;2023-08-08T07:32:07;100292.53;;;16.24;100.00
71465;BME280;59274;49.874;9.154;2023-08-08T07:34:33;100296.31;;;16.37;100.00
71465;BME280;59274;49.874;9.154;2023-08-08T07:36:59;100293.94;;;16.39;100.00
71465;BME280;59274;49.874;9.154;2023-08-08T07:39:24;100296.59;;;16.46;100.00
71465;BME280;59274;49.874;9.154;2023-08-08T07:41:50;100291.09;;;16.46;100.00
71465;BME280;59274;49.874;9.154;2023-08-08T07:44:16;100298.88;;;16.51;100.00
71465;BME280;59274;49.874;9.154;2023-08-08T07:46:41;100287.81;;;16.58;99.89
71465;BME280;59274;49.874;9.154;2023-08-08T07:49:07;100293.28;;;16.62;98.06
71465;BME280;59274;49.874;9.154;2023-08-08T07:51:34;100289.31;;;16.66;97.04
71465;BME280;59274;49.874;9.154;2023-08-08T07:54:00;100288.03;;;16.74;96.35
71465;BME280;59274;49.874;9.154;2023-08-08T07:56:25;100296.53;;;16.83;95.07
71465;BME280;59274;49.874;9.154;2023-08-08T07:58:51;100298.44;;;16.87;95.71
71465;BME280;59274;49.874;9.154;2023-08-08T08:01:17;100292.06;;;16.93;97.32
71465;BME280;59274;49.874;9.154;2023-08-08T08:03:43;100284.16;;;16.99;97.08
71465;BME280;59274;49.874;9.154;2023-08-08T08:06:08;100291.50;;;17.05;90.39
71465;BME280;59274;49.874;9.154;2023-08-08T08:08:33;100291.28;;;17.19;89.49
71465;BME280;59274;49.874;9.154;2023-08-08T08:11:01;100282.06;;;17.33;86.85
71465;BME280;59274;49.874;9.154;2023-08-08T08:13:27;100293.28;;;17.42;86.80
71465;BME280;59274;49.874;9.154;2023-08-08T08:15:52;100281.41;;;17.49;83.03
71465;BME280;59274;49.874;9.154;2023-08-08T08:18:17;100282.53;;;17.51;83.51
71465;BME280;59274;49.874;9.154;2023-08-08T08:20:45;100276.53;;;17.60;83.08
71465;BME280;59274;49.874;9.154;2023-08-08T08:23:10;100274.13;;;17.62;83.94
71465;BME280;59274;49.874;9.154;2023-08-08T08:25:36;100279.50;;;17.69;87.56
71465;BME280;59274;49.874;9.154;2023-08-08T08:28:01;100284.81;;;17.80;83.19
71465;BME280;59274;49.874;9.154;2023-08-08T08:30:26;100280.34;;;17.89;79.19
71465;BME280;59274;49.874;9.154;2023-08-08T08:32:52;100278.25;;;17.97;79.45
71465;BME280;59274;49.874;9.154;2023-08-08T08:35:18;100281.91;;;18.10;79.28
71465;BME280;59274;49.874;9.154;2023-08-08T08:37:43;100288.19;;;18.11;77.84
71465;BME280;59274;49.874;9.154;2023-08-08T08:40:09;100283.34;;;18.18;78.08
71465;BME280;59274;49.874;9.154;2023-08-08T08:42:37;100287.97;;;18.21;77.89
71465;BME280;59274;49.874;9.154;2023-08-08T08:45:04;100286.41;;;18.20;76.66
71465;BME280;59274;49.874;9.154;2023-08-08T08:47:31;100276.84;;;18.28;77.64
71465;BME280;59274;49.874;9.154;2023-08-08T08:49:57;100278.81;;;18.28;76.57
71465;BME280;59274;49.874;9.154;2023-08-08T08:52:22;100272.59;;;18.44;75.10
71465;BME280;59274;49.874;9.154;2023-08-08T08:54:50;100270.53;;;18.48;73.88
71465;BME280;59274;49.874;9.154;2023-08-08T08:57:16;100263.66;;;18.59;75.48
71465;BME280;59274;49.874;9.154;2023-08-08T08:59:42;100276.91;;;18.45;75.00
71465;BME280;59274;49.874;9.154;2023-08-08T09:02:07;100277.16;;;18.50;75.12
71465;BME280;59274;49.874;9.154;2023-08-08T09:04:36;100271.97;;;18.36;73.72
71465;BME280;59274;49.874;9.154;2023-08-08T09:07:02;100273.38;;;18.44;75.50
71465;BME280;59274;49.874;9.154;2023-08-08T09:09:33;100273.88;;;18.59;78.11
71465;BME280;59274;49.874;9.154;2023-08-08T09:11:59;100269.63;;;18.54;75.46
71465;BME280;59274;49.874;9.154;2023-08-08T09:14:26;100276.28;;;18.57;75.71
71465;BME280;59274;49.874;9.154;2023-08-08T09:16:53;100270.56;;;18.67;76.44
71465;BME280;59274;49.874;9.154;2023-08-08T09:19:19;100263.41;;;18.70;77.88
71465;BME280;59274;49.874;9.154;2023-08-08T09:21:45;100255.50;;;18.72;75.55
71465;BME280;59274;49.874;9.154;2023-08-08T09:24:11;100262.25;;;18.87;77.31
71465;BME280;59274;49.874;9.154;2023-08-08T09:26:37;100255.88;;;18.90;76.69
71465;BME280;59274;49.874;9.154;2023-08-08T09:29:04;100253.91;;;18.91;76.60
71465;BME280;59274;49.874;9.154;2023-08-08T09:31:30;100265.19;;;18.96;75.76
71465;BME280;59274;49.874;9.154;2023-08-08T09:33:57;100258.56;;;18.94;74.58
71465;BME280;59274;49.874;9.154;2023-08-08T09:36:23;100243.88;;;18.64;73.25
71465;BME280;59274;49.874;9.154;2023-08-08T09:38:49;100252.56;;;18.63;73.33
71465;BME280;59274;49.874;9.154;2023-08-08T09:41:14;100251.72;;;18.66;73.11
71465;BME280;59274;49.874;9.154;2023-08-08T09:43:43;100256.50;;;18.82;72.83
71465;BME280;59274;49.874;9.154;2023-08-08T09:46:09;100244.13;;;18.90;73.92
71465;BME280;59274;49.874;9.154;2023-08-08T09:48:35;100255.72;;;18.97;69.47
71465;BME280;59274;49.874;9.154;2023-08-08T09:51:04;100253.91;;;18.74;67.72
71465;BME280;59274;49.874;9.154;2023-08-08T09:53:30;100254.75;;;18.71;67.64
71465;BME280;59274;49.874;9.154;2023-08-08T09:55:56;100250.09;;;18.85;68.56
71465;BME280;59274;49.874;9.154;2023-08-08T09:58:22;100240.13;;;18.74;66.50
71465;BME280;59274;49.874;9.154;2023-08-08T10:00:49;100240.56;;;18.73;64.52
71465;BME280;59274;49.874;9.154;2023-08-08T10:03:19;100243.50;;;18.82;65.20
71465;BME280;59274;49.874;9.154;2023-08-08T10:05:45;100236.88;;;19.12;68.07
71465;BME280;59274;49.874;9.154;2023-08-08T10:08:11;100228.53;;;19.15;69.03
71465;BME280;59274;49.874;9.154;2023-08-08T10:10:40;100235.06;;;19.05;65.27
71465;BME280;59274;49.874;9.154;2023-08-08T10:13:07;100239.22;;;19.13;64.33
71465;BME280;59274;49.874;9.154;2023-08-08T10:15:37;100233.81;;;19.10;64.25
71465;BME280;59274;49.874;9.154;2023-08-08T10:18:06;100234.84;;;19.16;65.13
71465;BME280;59274;49.874;9.154;2023-08-08T10:20:32;100237.59;;;19.32;64.55
71465;BME280;59274;49.874;9.154;2023-08-08T10:22:59;100241.63;;;19.28;63.96
71465;BME280;59274;49.874;9.154;2023-08-08T10:25:26;100240.94;;;19.24;64.46
71465;BME280;59274;49.874;9.154;2023-08-08T10:28:09;100246.41;;;19.40;63.64
71465;BME280;59274;49.874;9.154;2023-08-08T10:30:47;100254.19;;;19.45;64.31
71465;BME280;59274;49.874;9.154;2023-08-08T10:33:25;100236.81;;;19.32;62.27
71465;BME280;59274;49.874;9.154;2023-08-08T10:36:03;100244.44;;;19.40;63.37
71465;BME280;59274;49.874;9.154;2023-08-08T10:38:50;100246.88;;;19.54;64.65
71465;BME280;59274;49.874;9.154;2023-08-08T10:41:20;100246.28;;;19.47;62.71
71465;BME280;59274;49.874;9.154;2023-08-08T10:46:26;100240.31;;;19.93;63.06
71465;BME280;59274;49.874;9.154;2023-08-08T10:48:53;100252.09;;;20.10;60.37
71465;BME280;59274;49.874;9.154;2023-08-08T10:51:19;100238.81;;;20.34;59.69
71465;BME280;59274;49.874;9.154;2023-08-08T10:53:45;100232.59;;;20.30;59.40
71465;BME280;59274;49.874;9.154;2023-08-08T10:56:13;100244.13;;;20.12;58.88
71465;BME280;59274;49.874;9.154;2023-08-08T10:58:47;100236.19;;;20.14;60.42
71465;BME280;59274;49.874;9.154;2023-08-08T11:01:13;100229.34;;;19.77;59.66
71465;BME280;59274;49.874;9.154;2023-08-08T11:03:40;100237.13;;;19.95;59.20
71465;BME280;59274;49.874;9.154;2023-08-08T11:06:07;100223.31;;;20.24;59.11
71465;BME280;59274;49.874;9.154;2023-08-08T11:08:34;100228.00;;;20.40;59.85
71465;BME280;59274;49.874;9.154;2023-08-08T11:11:02;100223.97;;;20.28;56.70
71465;BME280;59274;49.874;9.154;2023-08-08T11:13:28;100225.78;;;20.35;56.14
71465;BME280;59274;49.874;9.154;2023-08-08T11:15:54;100225.06;;;20.72;58.18
71465;BME280;59274;49.874;9.154;2023-08-08T11:18:20;100239.97;;;20.20;57.58
71465;BME280;59274;49.874;9.154;2023-08-08T11:20:45;100231.66;;;20.49;57.70
71465;BME280;59274;49.874;9.154;2023-08-08T11:23:11;100230.56;;;20.72;56.74
71465;BME280;59274;49.874;9.154;2023-08-08T11:25:40;100223.47;;;20.96;56.37
71465;BME280;59274;49.874;9.154;2023-08-08T11:28:07;100222.06;;;20.92;55.59
71465;BME280;59274;49.874;9.154;2023-08-08T11:30:35;100224.47;;;20.90;58.04
71465;BME280;59274;49.874;9.154;2023-08-08T11:33:01;100227.47;;;20.83;58.40
71465;BME280;59274;49.874;9.154;2023-08-08T11:35:27;100218.09;;;20.67;57.80
71465;BME280;59274;49.874;9.154;2023-08-08T11:37:54;100212.78;;;20.86;57.54
71465;BME280;59274;49.874;9.154;2023-08-08T11:40:22;100215.44;;;21.02;54.87
71465;BME280;59274;49.874;9.154;2023-08-08T11:42:50;100212.44;;;20.96;54.99
71465;BME280;59274;49.874;9.154;2023-08-08T11:45:16;100221.50;;;20.97;53.97
71465;BME280;59274;49.874;9.154;2023-08-08T11:47:42;100218.63;;;21.13;56.82
71465;BME280;59274;49.874;9.154;2023-08-08T11:50:09;100216.03;;;21.44;54.70
71465;BME280;59274;49.874;9.154;2023-08-08T11:52:40;100217.84;;;21.25;55.13
71465;BME280;59274;49.874;9.154;2023-08-08T11:55:07;100195.44;;;21.79;53.68
71465;BME280;59274;49.874;9.154;2023-08-08T11:57:35;100206.78;;;21.94;51.21
71465;BME280;59274;49.874;9.154;2023-08-08T12:00:09;100203.53;;;21.39;52.21
71465;BME280;59274;49.874;9.154;2023-08-08T12:02:38;100205.53;;;21.39;53.04
71465;BME280;59274;49.874;9.154;2023-08-08T12:05:08;100198.47;;;21.72;52.23
71465;BME280;59274;49.874;9.154;2023-08-08T12:07:35;100192.53;;;21.61;51.64
71465;BME280;59274;49.874;9.154;2023-08-08T12:10:03;100193.78;;;22.04;51.60
71465;BME280;59274;49.874;9.154;2023-08-08T12:12:29;100188.69;;;22.55;50.51
71465;BME280;59274;49.874;9.154;2023-08-08T12:14:56;100196.78;;;22.18;52.59
71465;BME280;59274;49.874;9.154;2023-08-08T12:17:22;100201.94;;;22.29;52.58
71465;BME280;59274;49.874;9.154;2023-08-08T12:19:47;100201.00;;;22.01;51.85
71465;BME280;59274;49.874;9.154;2023-08-08T12:22:14;100209.91;;;21.83;51.93
71465;BME280;59274;49.874;9.154;2023-08-08T12:24:39;100207.41;;;21.76;51.36
71465;BME280;59274;49.874;9.154;2023-08-08T12:27:05;100207.16;;;22.05;50.78
71465;BME280;59274;49.874;9.154;2023-08-08T12:29:32;100191.16;;;22.31;49.93
71465;BME280;59274;49.874;9.154;2023-08-08T12:31:57;100196.16;;;21.93;51.47
71465;BME280;59274;49.874;9.154;2023-08-08T12:34:22;100197.19;;;22.30;49.49
71465;BME280;59274;49.874;9.154;2023-08-08T12:36:48;100179.97;;;23.15;48.22
71465;BME280;59274;49.874;9.154;2023-08-08T12:39:13;100181.03;;;23.08;48.16
71465;BME280;59274;49.874;9.154;2023-08-08T12:41:39;100172.25;;;23.00;48.09